createdAt,value
2022-10-27T00:00:05.027Z,96.80
2022-10-27T00:02:44.112Z,96.80
2022-10-27T00:05:11.975Z,96.80
2022-10-27T00:07:40.275Z,96.80
2022-10-27T00:10:09.227Z,96.80
2022-10-27T00:12:37.032Z,96.80
2022-10-27T00:15:05.032Z,96.80
2022-10-27T00:17:32.755Z,96.80
2022-10-27T00:22:34.674Z,96.80
2022-10-27T00:25:02.434Z,96.80
2022-10-27T00:27:30.153Z,96.80
2022-10-27T00:29:57.826Z,96.80
2022-10-27T00:32:25.816Z,96.80
2022-10-27T00:34:53.519Z,96.80
2022-10-27T00:37:22.561Z,96.80
2022-10-27T00:39:50.276Z,96.80
2022-10-27T00:42:17.976Z,96.80
2022-10-27T00:44:47.404Z,96.80
2022-10-27T00:47:22.796Z,96.80
2022-10-27T00:49:56.359Z,96.80
2022-10-27T00:52:30.594Z,96.80
2022-10-27T00:55:03.703Z,96.80
2022-10-27T00:57:33.070Z,96.80
2022-10-27T01:00:03.174Z,96.80
2022-10-27T01:02:31.645Z,96.80
2022-10-27T01:05:04.663Z,96.80
2022-10-27T01:07:34.630Z,96.80
2022-10-27T01:10:02.743Z,96.80
2022-10-27T01:12:30.440Z,96.80
2022-10-27T01:14:58.170Z,96.80
2022-10-27T01:17:38.155Z,96.80
2022-10-27T01:20:29.705Z,96.80
2022-10-27T01:23:02.893Z,96.80
2022-10-27T01:25:57.431Z,96.80
2022-10-27T01:28:43.137Z,96.80
2022-10-27T01:31:14.074Z,96.80
2022-10-27T01:33:47.842Z,96.80
2022-10-27T01:36:23.772Z,96.80
2022-10-27T01:38:59.611Z,96.80
2022-10-27T01:41:32.152Z,96.80
2022-10-27T01:44:07.607Z,96.80
2022-10-27T01:46:37.309Z,96.80
2022-10-27T01:49:06.410Z,96.80
2022-10-27T01:51:34.115Z,96.80
2022-10-27T01:54:02.347Z,96.80
2022-10-27T01:56:51.788Z,96.80
2022-10-27T01:59:34.673Z,96.80
2022-10-27T02:02:09.699Z,96.80
2022-10-27T02:04:46.396Z,96.80
2022-10-27T02:07:19.736Z,96.80
2022-10-27T02:09:53.537Z,96.80
2022-10-27T02:12:26.201Z,96.80
2022-10-27T02:14:56.407Z,96.80
2022-10-27T02:17:29.780Z,96.80
2022-10-27T02:19:59.308Z,96.80
2022-10-27T02:22:30.135Z,96.80
2022-10-27T02:24:58.009Z,96.80
2022-10-27T02:27:34.193Z,96.80
2022-10-27T02:30:03.539Z,96.80
2022-10-27T02:32:33.359Z,96.80
2022-10-27T02:35:01.877Z,96.80
2022-10-27T02:37:33.018Z,96.80
2022-10-27T02:40:01.159Z,96.80
2022-10-27T02:42:29.063Z,96.80
2022-10-27T02:44:56.769Z,96.80
2022-10-27T02:47:24.560Z,96.80
2022-10-27T02:49:53.598Z,96.80
2022-10-27T02:52:21.379Z,96.80
2022-10-27T02:54:49.706Z,96.80
2022-10-27T02:57:18.652Z,96.80
2022-10-27T02:59:49.633Z,96.80
2022-10-27T03:02:28.434Z,96.80
2022-10-27T03:04:57.960Z,96.80
2022-10-27T03:07:25.734Z,96.80
2022-10-27T03:09:53.440Z,96.80
2022-10-27T03:12:21.190Z,96.80
2022-10-27T03:14:48.939Z,96.80
2022-10-27T03:17:16.662Z,96.80
2022-10-27T03:19:44.394Z,96.80
2022-10-27T03:22:13.406Z,96.80
2022-10-27T03:24:41.109Z,96.80
2022-10-27T03:27:08.846Z,96.80
2022-10-27T03:29:36.609Z,96.80
2022-10-27T03:32:04.493Z,96.80
2022-10-27T03:34:32.235Z,96.80
2022-10-27T03:36:59.941Z,96.80
2022-10-27T03:39:29.059Z,96.80
2022-10-27T03:41:56.799Z,96.80
2022-10-27T03:44:24.563Z,96.80
2022-10-27T03:46:52.299Z,96.80
2022-10-27T03:49:20.039Z,96.80
2022-10-27T03:51:47.942Z,96.80
2022-10-27T03:54:15.653Z,96.80
2022-10-27T03:56:44.628Z,96.80
2022-10-27T03:59:12.361Z,96.80
2022-10-27T04:01:40.360Z,96.80
2022-10-27T04:04:08.123Z,96.80
2022-10-27T04:06:35.873Z,96.80
2022-10-27T04:09:07.007Z,96.80
2022-10-27T04:11:34.702Z,96.80
2022-10-27T04:14:03.756Z,96.80
2022-10-27T04:16:31.460Z,96.80
2022-10-27T04:18:59.217Z,96.80
2022-10-27T04:21:26.972Z,96.80
2022-10-27T04:23:54.629Z,96.80
2022-10-27T04:26:22.408Z,96.80
2022-10-27T04:28:50.141Z,96.80
2022-10-27T04:31:21.172Z,96.80
2022-10-27T04:33:48.877Z,96.80
2022-10-27T04:36:16.629Z,96.80
2022-10-27T04:38:44.347Z,96.80
2022-10-27T04:41:12.081Z,96.80
2022-10-27T04:43:39.840Z,96.80
2022-10-27T04:46:07.585Z,96.80
2022-10-27T04:48:40.232Z,96.80
2022-10-27T04:51:07.966Z,96.80
2022-10-27T04:53:35.628Z,96.80
2022-10-27T04:56:03.345Z,96.80
2022-10-27T04:58:31.156Z,96.80
2022-10-27T05:00:58.881Z,96.80
2022-10-27T05:03:26.583Z,96.80
2022-10-27T05:05:55.743Z,96.80
2022-10-27T05:08:23.465Z,96.80
2022-10-27T05:10:55.535Z,96.80
2022-10-27T05:13:23.638Z,96.80
2022-10-27T05:15:53.433Z,96.80
2022-10-27T05:18:21.179Z,96.80
2022-10-27T05:20:48.961Z,96.80
2022-10-27T05:23:19.953Z,96.80
2022-10-27T05:25:51.844Z,96.80
2022-10-27T05:28:19.559Z,96.80
2022-10-27T05:30:47.427Z,96.80
2022-10-27T05:33:15.624Z,96.80
2022-10-27T05:35:45.183Z,96.80
2022-10-27T05:38:13.116Z,96.80
2022-10-27T05:40:42.161Z,96.80
2022-10-27T05:43:11.040Z,96.80
2022-10-27T05:45:39.513Z,96.80
2022-10-27T05:48:10.378Z,96.80
2022-10-27T05:50:38.128Z,96.80
2022-10-27T05:53:06.159Z,96.80
2022-10-27T05:55:35.458Z,96.80
2022-10-27T05:58:06.021Z,96.80
2022-10-27T06:00:36.421Z,96.80
2022-10-27T06:03:06.956Z,96.80
2022-10-27T06:05:37.627Z,96.80
2022-10-27T06:08:05.634Z,96.80
2022-10-27T06:10:33.508Z,96.80
2022-10-27T06:13:04.532Z,96.80
2022-10-27T06:15:33.436Z,96.80
2022-10-27T06:18:01.643Z,96.80
2022-10-27T06:20:29.459Z,96.80
2022-10-27T06:22:57.351Z,96.80
2022-10-27T06:25:25.919Z,96.80
2022-10-27T06:27:54.164Z,96.80
2022-10-27T06:30:24.817Z,96.80
2022-10-27T06:32:53.967Z,96.80
2022-10-27T06:35:22.186Z,96.80
2022-10-27T06:37:50.018Z,96.80
2022-10-27T06:40:19.793Z,96.80
2022-10-27T06:43:05.618Z,96.80
2022-10-27T06:45:39.129Z,96.80
2022-10-27T06:48:08.855Z,96.80
2022-10-27T06:50:36.855Z,96.80
2022-10-27T06:53:04.948Z,96.80
2022-10-27T06:55:33.920Z,96.80
2022-10-27T06:58:01.739Z,96.80
2022-10-27T07:00:29.540Z,96.80
2022-10-27T07:02:59.918Z,96.80
2022-10-27T07:05:27.714Z,96.80
2022-10-27T07:07:55.786Z,96.80
2022-10-27T07:10:24.283Z,96.80
2022-10-27T07:12:54.791Z,96.80
2022-10-27T07:15:23.527Z,96.80
2022-10-27T07:17:58.791Z,96.80
2022-10-27T07:20:29.490Z,96.80
2022-10-27T07:22:57.747Z,96.80
2022-10-27T07:25:25.747Z,96.80
2022-10-27T07:27:55.111Z,96.80
2022-10-27T07:30:25.794Z,96.80
2022-10-27T07:32:54.047Z,96.80
2022-10-27T07:35:22.657Z,96.80
2022-10-27T07:37:56.065Z,93.40
2022-10-27T07:40:28.910Z,87.80
2022-10-27T07:43:06.972Z,84.00
2022-10-27T07:45:37.781Z,79.60
2022-10-27T07:48:07.191Z,76.70
2022-10-27T07:50:35.236Z,75.10
2022-10-27T07:53:05.263Z,74.20
2022-10-27T07:55:36.071Z,71.70
2022-10-27T07:58:05.763Z,70.60
2022-10-27T08:00:35.285Z,69.00
2022-10-27T08:03:08.031Z,67.00
2022-10-27T08:05:38.443Z,64.10
2022-10-27T08:08:08.880Z,63.90
2022-10-27T08:10:39.007Z,63.30
2022-10-27T08:13:07.687Z,61.50
2022-10-27T08:15:36.336Z,60.30
2022-10-27T08:18:04.358Z,63.80
2022-10-27T08:20:34.104Z,62.20
2022-10-27T08:23:03.826Z,60.60
2022-10-27T08:25:33.885Z,59.40
2022-10-27T08:28:01.781Z,58.60
2022-10-27T08:30:33.616Z,57.00
2022-10-27T08:33:05.115Z,56.90
2022-10-27T08:35:34.640Z,56.50
2022-10-27T08:38:04.712Z,56.00
2022-10-27T08:40:43.074Z,56.70
2022-10-27T08:43:34.873Z,55.30
2022-10-27T08:46:07.881Z,55.00
2022-10-27T08:48:38.044Z,53.70
2022-10-27T08:51:07.558Z,52.70
2022-10-27T08:53:36.953Z,53.30
2022-10-27T08:56:10.387Z,52.20
2022-10-27T08:58:40.792Z,51.90
2022-10-27T09:01:21.658Z,51.90
2022-10-27T09:04:06.745Z,51.40
2022-10-27T09:06:39.355Z,51.50
2022-10-27T09:09:18.077Z,51.80
2022-10-27T09:11:58.991Z,51.50
2022-10-27T09:14:45.518Z,52.40
2022-10-27T09:17:17.135Z,54.40
2022-10-27T09:19:49.153Z,54.70
2022-10-27T09:22:21.369Z,54.90
2022-10-27T09:24:57.898Z,55.70
2022-10-27T09:27:27.073Z,56.50
2022-10-27T09:29:57.037Z,56.50
2022-10-27T09:32:26.781Z,58.30
2022-10-27T09:35:02.640Z,60.00
2022-10-27T09:37:33.136Z,61.70
2022-10-27T09:40:01.058Z,64.20
2022-10-27T09:42:30.652Z,65.50
2022-10-27T09:45:03.618Z,67.70
2022-10-27T09:47:38.303Z,69.40
2022-10-27T09:50:07.410Z,70.70
2022-10-27T09:52:40.747Z,72.70
2022-10-27T09:55:09.263Z,74.90
2022-10-27T09:57:41.047Z,76.60
2022-10-27T10:00:24.524Z,77.90
2022-10-27T10:05:37.133Z,77.40
2022-10-27T10:08:13.823Z,77.60
2022-10-27T10:10:53.808Z,77.80
2022-10-27T10:13:23.943Z,79.40
2022-10-27T10:16:09.630Z,79.50
2022-10-27T10:18:38.584Z,80.30
2022-10-27T10:21:09.135Z,80.80
2022-10-27T10:23:38.693Z,81.00
2022-10-27T10:26:17.715Z,81.30
2022-10-27T10:28:50.495Z,81.80
2022-10-27T10:31:23.992Z,82.30
2022-10-27T10:33:52.841Z,81.60
2022-10-27T10:36:27.515Z,81.40
2022-10-27T10:38:57.229Z,81.40
2022-10-27T10:41:26.265Z,81.90
2022-10-27T10:44:13.562Z,82.60
2022-10-27T10:46:51.844Z,83.40
2022-10-27T10:49:23.623Z,83.30
2022-10-27T10:51:53.503Z,83.90
2022-10-27T10:54:27.646Z,84.20
2022-10-27T10:56:57.274Z,84.60
2022-10-27T10:59:29.804Z,85.20
2022-10-27T11:02:06.873Z,85.00
2022-10-27T11:04:42.416Z,85.00
2022-10-27T11:07:21.167Z,84.60
2022-10-27T11:09:57.623Z,83.30
2022-10-27T11:12:32.865Z,82.00
2022-10-27T11:15:06.440Z,80.30
2022-10-27T11:17:36.855Z,78.40
2022-10-27T11:20:07.737Z,75.50
2022-10-27T11:22:37.958Z,72.20
2022-10-27T11:25:16.828Z,71.50
2022-10-27T11:27:57.283Z,70.90
2022-10-27T11:30:28.387Z,71.70
2022-10-27T11:33:09.284Z,73.40
2022-10-27T11:35:42.034Z,73.30
2022-10-27T11:38:16.332Z,74.90
2022-10-27T11:40:49.318Z,76.20
2022-10-27T11:43:23.459Z,77.70
2022-10-27T11:45:59.129Z,77.40
2022-10-27T11:48:35.509Z,78.20
2022-10-27T11:51:08.003Z,79.60
2022-10-27T11:53:39.934Z,80.30
2022-10-27T11:56:24.531Z,81.10
2022-10-27T11:59:02.264Z,81.80
2022-10-27T12:01:52.288Z,81.70
2022-10-27T12:04:36.154Z,82.30
2022-10-27T12:07:11.684Z,82.70
2022-10-27T12:09:59.113Z,82.50
2022-10-27T12:12:34.360Z,82.80
2022-10-27T12:15:08.785Z,83.20
2022-10-27T12:17:44.676Z,83.90
2022-10-27T12:20:17.563Z,84.10
2022-10-27T12:22:51.618Z,83.60
2022-10-27T12:25:28.851Z,83.70
2022-10-27T12:27:58.472Z,83.90
2022-10-27T12:30:27.184Z,83.90
2022-10-27T12:33:04.007Z,84.10
2022-10-27T12:35:35.950Z,84.40
2022-10-27T12:38:11.894Z,84.40
2022-10-27T12:40:47.310Z,84.30
2022-10-27T12:43:25.130Z,84.00
2022-10-27T12:46:07.407Z,84.20
2022-10-27T12:48:41.435Z,85.10
2022-10-27T12:51:21.869Z,84.30
2022-10-27T12:53:54.300Z,82.30
2022-10-27T12:56:32.020Z,83.90
2022-10-27T12:59:09.226Z,84.80
2022-10-27T13:01:45.796Z,84.30
2022-10-27T13:04:36.629Z,84.20
2022-10-27T13:07:22.693Z,83.70
2022-10-27T13:10:09.272Z,84.40
2022-10-27T13:12:48.027Z,84.40
2022-10-27T13:15:36.440Z,84.10
2022-10-27T13:18:18.346Z,82.80
2022-10-27T13:20:58.604Z,82.90
2022-10-27T13:23:36.057Z,82.60
2022-10-27T13:26:18.862Z,82.90
2022-10-27T13:28:51.367Z,81.90
2022-10-27T13:31:23.043Z,82.70
2022-10-27T13:34:20.543Z,83.30
2022-10-27T13:36:49.631Z,83.30
2022-10-27T13:39:47.173Z,83.90
2022-10-27T13:42:18.087Z,83.90
2022-10-27T13:44:47.810Z,84.30
2022-10-27T13:47:20.513Z,84.70
2022-10-27T13:49:58.494Z,84.60
2022-10-27T13:52:29.399Z,84.90
2022-10-27T13:55:01.838Z,84.90
2022-10-27T13:57:51.187Z,85.20
2022-10-27T14:00:24.959Z,85.10
2022-10-27T14:03:12.546Z,85.00
2022-10-27T14:08:24.295Z,85.10
2022-10-27T14:10:55.666Z,85.10
2022-10-27T14:13:32.562Z,85.40
2022-10-27T14:16:03.582Z,85.00
2022-10-27T14:18:33.177Z,85.50
2022-10-27T14:21:17.187Z,85.70
2022-10-27T14:23:48.022Z,85.60
2022-10-27T14:26:25.562Z,85.40
2022-10-27T14:28:53.267Z,85.70
2022-10-27T14:31:23.868Z,86.20
2022-10-27T14:33:52.308Z,86.50
2022-10-27T14:36:23.225Z,86.40
2022-10-27T14:38:56.851Z,86.60
2022-10-27T14:41:31.387Z,86.90
2022-10-27T14:44:01.579Z,86.60
2022-10-27T14:46:42.411Z,86.20
2022-10-27T14:49:18.015Z,85.80
2022-10-27T14:51:49.867Z,86.60
2022-10-27T14:54:21.842Z,86.60
2022-10-27T14:56:49.626Z,86.60
2022-10-27T14:59:21.543Z,87.10
2022-10-27T15:01:50.503Z,85.80
2022-10-27T15:04:22.217Z,85.70
2022-10-27T15:06:52.195Z,85.90
2022-10-27T15:09:31.970Z,85.80
2022-10-27T15:12:04.014Z,86.10
2022-10-27T15:14:37.388Z,88.00
2022-10-27T15:17:06.415Z,88.50
2022-10-27T15:19:36.399Z,89.50
2022-10-27T15:22:04.480Z,89.80
2022-10-27T15:24:33.599Z,89.90
2022-10-27T15:27:01.506Z,90.00
2022-10-27T15:29:29.329Z,90.20
2022-10-27T15:31:59.514Z,90.50
2022-10-27T15:34:32.728Z,90.90
2022-10-27T15:37:16.343Z,91.00
2022-10-27T15:39:45.425Z,91.20
2022-10-27T15:42:19.046Z,91.60
2022-10-27T15:44:47.360Z,91.90
2022-10-27T15:47:38.332Z,91.90
2022-10-27T15:50:22.107Z,92.30
2022-10-27T15:52:52.242Z,92.60
2022-10-27T15:55:27.360Z,92.70
2022-10-27T15:57:55.333Z,93.10
2022-10-27T16:00:27.246Z,93.30
2022-10-27T16:03:02.449Z,93.60
2022-10-27T16:05:43.845Z,93.60
2022-10-27T16:08:40.741Z,93.80
2022-10-27T16:11:40.927Z,94.50
2022-10-27T16:14:16.814Z,94.70
2022-10-27T16:16:46.463Z,94.90
2022-10-27T16:19:15.011Z,95.10
2022-10-27T16:21:42.831Z,95.30
2022-10-27T16:24:14.929Z,95.40
2022-10-27T16:26:44.063Z,95.50
2022-10-27T16:29:16.530Z,95.50
2022-10-27T16:31:44.688Z,95.50
2022-10-27T16:34:19.111Z,95.50
2022-10-27T16:36:49.175Z,95.40
2022-10-27T16:39:16.847Z,95.70
2022-10-27T16:41:47.208Z,95.70
2022-10-27T16:44:16.768Z,95.90
2022-10-27T16:46:44.567Z,96.00
2022-10-27T16:49:12.290Z,95.80
2022-10-27T16:51:41.460Z,96.10
2022-10-27T16:54:09.158Z,96.30
2022-10-27T16:56:47.663Z,96.40
2022-10-27T16:59:15.402Z,96.40
2022-10-27T17:01:43.268Z,96.30
2022-10-27T17:04:11.199Z,96.60
2022-10-27T17:06:38.875Z,96.80
2022-10-27T17:09:06.579Z,96.80
2022-10-27T17:11:34.345Z,96.80
2022-10-27T17:14:03.376Z,96.80
2022-10-27T17:16:31.124Z,96.80
2022-10-27T17:18:58.927Z,96.80
2022-10-27T17:21:26.964Z,96.80
2022-10-27T17:23:54.670Z,96.80
2022-10-27T17:26:23.474Z,96.80
2022-10-27T17:28:52.047Z,96.80
2022-10-27T17:31:23.565Z,96.80
2022-10-27T17:33:52.997Z,96.80
2022-10-27T17:36:20.852Z,96.80
2022-10-27T17:38:48.616Z,96.80
2022-10-27T17:41:17.119Z,96.80
2022-10-27T17:43:44.810Z,96.80
2022-10-27T17:46:14.258Z,96.80
2022-10-27T17:48:45.063Z,96.80
2022-10-27T17:51:14.363Z,96.80
2022-10-27T17:53:43.171Z,96.70
2022-10-27T17:56:12.966Z,96.80
2022-10-27T17:58:42.165Z,96.80
2022-10-27T18:01:12.165Z,96.80
2022-10-27T18:03:41.080Z,96.80
2022-10-27T18:06:11.507Z,96.80
2022-10-27T18:08:39.884Z,96.80
2022-10-27T18:11:09.646Z,96.80
2022-10-27T18:13:41.616Z,96.80
2022-10-27T18:16:11.157Z,96.80
2022-10-27T18:18:41.111Z,96.80
2022-10-27T18:21:11.141Z,96.80
2022-10-27T18:23:38.831Z,96.80
2022-10-27T18:26:07.934Z,96.80
2022-10-27T18:31:11.023Z,96.80
2022-10-27T18:33:38.918Z,96.80
2022-10-27T18:36:08.759Z,96.80
2022-10-27T18:38:38.759Z,96.80
2022-10-27T18:41:09.317Z,96.80
2022-10-27T18:43:37.078Z,96.80
2022-10-27T18:46:06.443Z,96.80
2022-10-27T18:48:35.348Z,96.80
2022-10-27T18:51:05.407Z,96.80
2022-10-27T18:53:34.463Z,96.80
2022-10-27T18:56:04.923Z,96.80
2022-10-27T18:58:34.127Z,96.80
2022-10-27T19:01:03.438Z,96.80
2022-10-27T19:03:31.576Z,96.80
2022-10-27T19:06:00.035Z,96.80
2022-10-27T19:08:28.475Z,96.80
2022-10-27T19:10:59.300Z,96.80
2022-10-27T19:13:30.861Z,96.80
2022-10-27T19:16:04.602Z,96.80
2022-10-27T19:18:33.612Z,96.80
2022-10-27T19:21:03.079Z,96.80
2022-10-27T19:23:31.428Z,96.80
2022-10-27T19:26:05.322Z,96.80
2022-10-27T19:28:36.896Z,96.80
2022-10-27T19:31:05.355Z,96.80
2022-10-27T19:33:33.280Z,96.80
2022-10-27T19:36:06.612Z,96.80
2022-10-27T19:38:35.110Z,96.80
2022-10-27T19:41:09.032Z,96.80
2022-10-27T19:43:39.743Z,96.80
2022-10-27T19:46:07.904Z,96.80
2022-10-27T19:48:36.245Z,96.80
2022-10-27T19:51:19.633Z,96.80
2022-10-27T19:53:47.822Z,96.80
2022-10-27T19:56:18.764Z,96.80
2022-10-27T19:58:52.832Z,96.80
2022-10-27T20:01:22.531Z,96.80
2022-10-27T20:03:50.695Z,96.80
2022-10-27T20:06:18.942Z,96.80
2022-10-27T20:08:53.526Z,96.80
2022-10-27T20:11:25.810Z,96.80
2022-10-27T20:13:56.964Z,96.80
2022-10-27T20:16:27.236Z,96.80
2022-10-27T20:18:56.127Z,96.80
2022-10-27T20:21:24.097Z,96.80
2022-10-27T20:23:51.862Z,96.80
2022-10-27T20:26:34.908Z,96.80
2022-10-27T20:29:04.115Z,96.80
2022-10-27T20:31:31.800Z,96.80
2022-10-27T20:33:59.907Z,96.80
2022-10-27T20:36:27.946Z,96.80
2022-10-27T20:38:56.444Z,96.80
2022-10-27T20:41:26.283Z,96.80
2022-10-27T20:43:55.206Z,96.80
2022-10-27T20:46:25.176Z,96.80
2022-10-27T20:48:53.982Z,96.80
2022-10-27T20:51:22.807Z,96.80
2022-10-27T20:53:56.913Z,96.80
2022-10-27T20:56:27.519Z,96.80
2022-10-27T20:58:55.362Z,96.50
2022-10-27T21:01:29.424Z,96.60
2022-10-27T21:03:59.223Z,96.50
2022-10-27T21:06:28.724Z,96.70
2022-10-27T21:08:57.110Z,96.30
2022-10-27T21:11:25.799Z,96.70
2022-10-27T21:13:54.958Z,96.60
2022-10-27T21:16:23.452Z,96.30
2022-10-27T21:18:53.668Z,96.60
2022-10-27T21:21:23.055Z,96.00
2022-10-27T21:23:52.114Z,96.40
2022-10-27T21:26:20.843Z,96.50
2022-10-27T21:28:51.975Z,96.50
2022-10-27T21:31:22.236Z,96.60
2022-10-27T21:33:51.606Z,96.60
2022-10-27T21:36:19.625Z,96.80
2022-10-27T21:38:49.391Z,96.80
2022-10-27T21:41:19.317Z,96.70
2022-10-27T21:43:49.512Z,96.70
2022-10-27T21:46:18.859Z,96.60
2022-10-27T21:48:47.350Z,96.70
2022-10-27T21:51:17.036Z,96.50
2022-10-27T21:53:45.543Z,96.70
2022-10-27T21:56:14.106Z,96.50
2022-10-27T21:58:41.987Z,96.40
2022-10-27T22:01:11.983Z,96.70
2022-10-27T22:03:41.012Z,96.60
2022-10-27T22:06:13.399Z,96.00
2022-10-27T22:08:42.400Z,95.90
2022-10-27T22:11:13.775Z,95.50
2022-10-27T22:13:41.487Z,95.70
2022-10-27T22:16:10.853Z,95.90
2022-10-27T22:18:39.553Z,95.90
2022-10-27T22:21:08.576Z,96.30
2022-10-27T22:23:36.872Z,96.50
2022-10-27T22:26:08.596Z,96.50
2022-10-27T22:28:36.982Z,96.40
2022-10-27T22:31:06.739Z,96.20
2022-10-27T22:33:34.942Z,96.30
2022-10-27T22:36:03.711Z,96.40
2022-10-27T22:38:31.506Z,95.90
2022-10-27T22:41:02.385Z,95.60
2022-10-27T22:43:32.298Z,95.80
2022-10-27T22:45:59.994Z,95.80
2022-10-27T22:48:28.427Z,95.70
2022-10-27T22:51:05.020Z,95.70
2022-10-27T22:53:34.141Z,95.20
2022-10-27T22:56:04.870Z,95.70
2022-10-27T22:58:34.251Z,95.60
2022-10-27T23:01:06.312Z,95.80
2022-10-27T23:03:34.276Z,95.70
2022-10-27T23:06:02.672Z,96.00
2022-10-27T23:08:30.407Z,96.20
2022-10-27T23:10:59.388Z,96.20
2022-10-27T23:13:28.543Z,96.40
2022-10-27T23:15:58.986Z,96.60
2022-10-27T23:18:27.419Z,96.70
2022-10-27T23:20:56.034Z,96.50
2022-10-27T23:23:24.136Z,95.80
2022-10-27T23:25:52.207Z,95.50
2022-10-27T23:28:20.501Z,95.70
2022-10-27T23:30:48.528Z,95.80
2022-10-27T23:33:18.547Z,95.70
2022-10-27T23:35:56.050Z,95.20
2022-10-27T23:40:53.283Z,95.70
2022-10-27T23:43:21.406Z,95.80
2022-10-27T23:45:49.329Z,96.00
2022-10-27T23:48:18.450Z,96.10
2022-10-27T23:50:46.120Z,96.20
2022-10-27T23:53:13.799Z,96.10
2022-10-27T23:55:41.795Z,96.60
2022-10-27T23:58:09.492Z,96.80
